El Paso International Airport
KELP : now visible

Airfield :











YOU CAN JOIN US ON...

 
LOGIN :

Register | Disclaimer

   EN    FR    IT 

 









Legend :    VFR   Marginal VFR   IFR   Intensive IFR   Very Intensive IFR
Visi :
Ceiling :
>= 8 km
>= 3000ft
5 to 8 km
1000 to 3000 ft
1500m to 5 km
500 to 1000 ft
800 to 1500m
200 to 500 ft
< 800m
< 200 ft
Symbols :   Thunderstorms  Fog  Heavy snow  Heavy precipitations  Wind > 20 kt






- Airport Elevation : 3959 ft
- IATA code : ELP


KELP - El Paso International

CURRENT METAR :
  • 142051Z 13010KT 10SM CLR 17/M04 A3026 RMK AO2 SLP218 T01671039 56013

EXPIRED METARs :
  • 141951Z 13009G23KT 10SM CLR 17/M04 A3027 RMK AO2 SLP219 T01671044
  • 141851Z 14008KT 100V180 10SM CLR 16/M04 A3029 RMK AO2 SLP225 T01611044

TAF KELP
Valid from the 14 at 18:00 until the 15 at 18:00 UTC


141732Z 1418/1518 11008KT P6SM FEW250
FM150600 VRB04KT P6SM SCT250



MET'MAP, your aeronautical weather chart ! - Copyright ORBIFLY December 2007 - Disclaimer

ORBIFLY MET'MAP TEAM :

Programming & Development : Alexandra Zaïnal
Concept & Development : Baudouin d'Aumeries
Co-Development & Prog : Marc-Olivier Méhu
Technical & hardware support : Manuel Goepfert

Contact : metmap@orbifly.com




SOURCES & CREDITS :

   NOAA       Earth
Advisory